sensor_id;sensor_type;location;lat;lon;timestamp;P1;durP1;ratioP1;P2;durP2;ratioP2
27644;SDS011;15054;57.152;-2.118;2022-08-11T00:01:20;1.95;;;1.27;;
27644;SDS011;15054;57.152;-2.118;2022-08-11T00:04:02;3.75;;;1.35;;
27644;SDS011;15054;57.152;-2.118;2022-08-11T00:06:32;1.52;;;1.42;;
27644;SDS011;15054;57.152;-2.118;2022-08-11T00:09:12;2.65;;;1.35;;
27644;SDS011;15054;57.152;-2.118;2022-08-11T00:11:50;1.50;;;1.27;;
27644;SDS011;15054;57.152;-2.118;2022-08-11T00:14:28;2.70;;;1.20;;
27644;SDS011;15054;57.152;-2.118;2022-08-11T00:17:07;1.45;;;1.20;;
27644;SDS011;15054;57.152;-2.118;2022-08-11T00:19:36;2.28;;;1.52;;
27644;SDS011;15054;57.152;-2.118;2022-08-11T00:22:29;1.55;;;1.38;;
27644;SDS011;15054;57.152;-2.118;2022-08-11T00:24:58;1.52;;;1.30;;
27644;SDS011;15054;57.152;-2.118;2022-08-11T00:27:35;1.52;;;1.38;;
27644;SDS011;15054;57.152;-2.118;2022-08-11T00:30:05;1.42;;;1.25;;
27644;SDS011;15054;57.152;-2.118;2022-08-11T00:32:34;1.10;;;1.00;;
27644;SDS011;15054;57.152;-2.118;2022-08-11T00:35:04;2.28;;;1.38;;
27644;SDS011;15054;57.152;-2.118;2022-08-11T00:37:55;3.90;;;1.20;;
27644;SDS011;15054;57.152;-2.118;2022-08-11T00:40:36;2.40;;;1.10;;
27644;SDS011;15054;57.152;-2.118;2022-08-11T00:43:21;1.23;;;1.23;;
27644;SDS011;15054;57.152;-2.118;2022-08-11T00:46:18;1.27;;;1.00;;
27644;SDS011;15054;57.152;-2.118;2022-08-11T00:49:10;1.20;;;1.10;;
27644;SDS011;15054;57.152;-2.118;2022-08-11T01:00:16;6.72;;;1.40;;
27644;SDS011;15054;57.152;-2.118;2022-08-11T01:17:08;0.88;;;0.80;;
27644;SDS011;15054;57.152;-2.118;2022-08-11T01:34:14;1.73;;;0.95;;
27644;SDS011;15054;57.152;-2.118;2022-08-11T01:58:25;2.25;;;0.90;;
27644;SDS011;15054;57.152;-2.118;2022-08-11T02:00:28;2.70;;;0.85;;
27644;SDS011;15054;57.152;-2.118;2022-08-11T02:03:05;0.90;;;0.85;;
27644;SDS011;15054;57.152;-2.118;2022-08-11T02:05:53;1.95;;;0.85;;
27644;SDS011;15054;57.152;-2.118;2022-08-11T02:09:02;0.80;;;0.80;;
27644;SDS011;15054;57.152;-2.118;2022-08-11T02:11:42;0.80;;;0.80;;
27644;SDS011;15054;57.152;-2.118;2022-08-11T02:17:36;1.42;;;0.85;;
27644;SDS011;15054;57.152;-2.118;2022-08-11T02:35:13;1.40;;;1.05;;
27644;SDS011;15054;57.152;-2.118;2022-08-11T02:37:47;0.77;;;0.75;;
27644;SDS011;15054;57.152;-2.118;2022-08-11T02:46:28;2.00;;;0.82;;
27644;SDS011;15054;57.152;-2.118;2022-08-11T02:52:35;1.67;;;0.70;;
27644;SDS011;15054;57.152;-2.118;2022-08-11T03:00:54;2.00;;;0.80;;
27644;SDS011;15054;57.152;-2.118;2022-08-11T03:03:49;4.20;;;1.10;;
27644;SDS011;15054;57.152;-2.118;2022-08-11T03:09:19;1.17;;;0.75;;
27644;SDS011;15054;57.152;-2.118;2022-08-11T03:12:05;1.73;;;0.60;;
27644;SDS011;15054;57.152;-2.118;2022-08-11T03:15:30;0.70;;;0.70;;
27644;SDS011;15054;57.152;-2.118;2022-08-11T03:18:41;1.15;;;0.70;;
27644;SDS011;15054;57.152;-2.118;2022-08-11T03:21:24;0.80;;;0.65;;
27644;SDS011;15054;57.152;-2.118;2022-08-11T03:24:30;0.70;;;0.70;;
27644;SDS011;15054;57.152;-2.118;2022-08-11T03:27:10;0.50;;;0.50;;
27644;SDS011;15054;57.152;-2.118;2022-08-11T03:35:40;0.55;;;0.55;;
27644;SDS011;15054;57.152;-2.118;2022-08-11T03:38:14;0.80;;;0.60;;
27644;SDS011;15054;57.152;-2.118;2022-08-11T03:40:50;0.93;;;0.60;;
27644;SDS011;15054;57.152;-2.118;2022-08-11T03:50:01;0.70;;;0.70;;
27644;SDS011;15054;57.152;-2.118;2022-08-11T03:52:52;3.60;;;1.30;;
27644;SDS011;15054;57.152;-2.118;2022-08-11T03:58:32;0.60;;;0.50;;
27644;SDS011;15054;57.152;-2.118;2022-08-11T04:01:27;1.40;;;0.60;;
27644;SDS011;15054;57.152;-2.118;2022-08-11T04:07:22;1.67;;;0.60;;
27644;SDS011;15054;57.152;-2.118;2022-08-11T04:21:42;1.98;;;0.80;;
27644;SDS011;15054;57.152;-2.118;2022-08-11T04:27:34;1.63;;;0.68;;
27644;SDS011;15054;57.152;-2.118;2022-08-11T04:40:05;1.98;;;0.80;;
27644;SDS011;15054;57.152;-2.118;2022-08-11T05:13:08;2.15;;;0.50;;
27644;SDS011;15054;57.152;-2.118;2022-08-11T05:16:00;0.65;;;0.60;;
27644;SDS011;15054;57.152;-2.118;2022-08-11T05:18:55;0.68;;;0.55;;
27644;SDS011;15054;57.152;-2.118;2022-08-11T05:21:45;0.73;;;0.50;;
27644;SDS011;15054;57.152;-2.118;2022-08-11T05:24:51;1.90;;;0.60;;
27644;SDS011;15054;57.152;-2.118;2022-08-11T05:31:09;0.77;;;0.40;;
27644;SDS011;15054;57.152;-2.118;2022-08-11T05:33:58;0.50;;;0.40;;
27644;SDS011;15054;57.152;-2.118;2022-08-11T05:37:40;0.50;;;0.50;;
27644;SDS011;15054;57.152;-2.118;2022-08-11T05:40:11;0.90;;;0.70;;
27644;SDS011;15054;57.152;-2.118;2022-08-11T05:42:58;0.40;;;0.40;;
27644;SDS011;15054;57.152;-2.118;2022-08-11T05:45:56;2.17;;;0.52;;
27644;SDS011;15054;57.152;-2.118;2022-08-11T05:48:44;0.60;;;0.60;;
27644;SDS011;15054;57.152;-2.118;2022-08-11T05:51:33;1.13;;;0.60;;
27644;SDS011;15054;57.152;-2.118;2022-08-11T05:54:30;0.50;;;0.50;;
27644;SDS011;15054;57.152;-2.118;2022-08-11T05:57:23;1.85;;;0.60;;
27644;SDS011;15054;57.152;-2.118;2022-08-11T06:00:15;1.40;;;0.90;;
27644;SDS011;15054;57.152;-2.118;2022-08-11T06:02:43;1.27;;;0.73;;
27644;SDS011;15054;57.152;-2.118;2022-08-11T06:05:14;0.60;;;0.60;;
27644;SDS011;15054;57.152;-2.118;2022-08-11T06:07:47;0.60;;;0.60;;
27644;SDS011;15054;57.152;-2.118;2022-08-11T06:10:24;0.60;;;0.60;;
27644;SDS011;15054;57.152;-2.118;2022-08-11T06:12:59;0.57;;;0.57;;
27644;SDS011;15054;57.152;-2.118;2022-08-11T06:15:28;0.70;;;0.70;;
27644;SDS011;15054;57.152;-2.118;2022-08-11T06:17:57;1.05;;;0.60;;
27644;SDS011;15054;57.152;-2.118;2022-08-11T06:20:27;0.50;;;0.50;;
27644;SDS011;15054;57.152;-2.118;2022-08-11T06:23:03;0.60;;;0.60;;
27644;SDS011;15054;57.152;-2.118;2022-08-11T06:25:34;1.17;;;0.52;;
27644;SDS011;15054;57.152;-2.118;2022-08-11T06:28:05;0.70;;;0.45;;
27644;SDS011;15054;57.152;-2.118;2022-08-11T06:33:00;0.45;;;0.45;;
27644;SDS011;15054;57.152;-2.118;2022-08-11T06:35:36;0.55;;;0.55;;
27644;SDS011;15054;57.152;-2.118;2022-08-11T06:40:53;1.00;;;0.70;;
27644;SDS011;15054;57.152;-2.118;2022-08-11T06:46:24;0.65;;;0.60;;
27644;SDS011;15054;57.152;-2.118;2022-08-11T06:48:54;0.80;;;0.50;;
27644;SDS011;15054;57.152;-2.118;2022-08-11T06:51:22;0.93;;;0.70;;
27644;SDS011;15054;57.152;-2.118;2022-08-11T06:53:51;0.60;;;0.55;;
27644;SDS011;15054;57.152;-2.118;2022-08-11T06:56:31;0.93;;;0.70;;
27644;SDS011;15054;57.152;-2.118;2022-08-11T06:59:54;1.27;;;0.68;;
27644;SDS011;15054;57.152;-2.118;2022-08-11T07:03:05;4.07;;;1.27;;
27644;SDS011;15054;57.152;-2.118;2022-08-11T07:05:39;1.85;;;0.63;;
27644;SDS011;15054;57.152;-2.118;2022-08-11T07:08:28;1.95;;;1.17;;
27644;SDS011;15054;57.152;-2.118;2022-08-11T07:14:49;2.15;;;0.57;;
27644;SDS011;15054;57.152;-2.118;2022-08-11T07:17:41;1.05;;;0.50;;
27644;SDS011;15054;57.152;-2.118;2022-08-11T07:20:15;0.50;;;0.50;;
27644;SDS011;15054;57.152;-2.118;2022-08-11T07:23:02;0.77;;;0.65;;
27644;SDS011;15054;57.152;-2.118;2022-08-11T07:25:52;0.75;;;0.75;;
27644;SDS011;15054;57.152;-2.118;2022-08-11T07:28:41;1.63;;;0.50;;
27644;SDS011;15054;57.152;-2.118;2022-08-11T07:34:35;0.63;;;0.50;;
27644;SDS011;15054;57.152;-2.118;2022-08-11T07:37:11;0.85;;;0.57;;
27644;SDS011;15054;57.152;-2.118;2022-08-11T07:39:43;1.25;;;0.50;;
27644;SDS011;15054;57.152;-2.118;2022-08-11T07:42:13;0.85;;;0.60;;
27644;SDS011;15054;57.152;-2.118;2022-08-11T07:44:46;0.38;;;0.30;;
27644;SDS011;15054;57.152;-2.118;2022-08-11T07:47:34;0.45;;;0.45;;
27644;SDS011;15054;57.152;-2.118;2022-08-11T07:50:20;0.57;;;0.57;;
27644;SDS011;15054;57.152;-2.118;2022-08-11T07:53:07;0.50;;;0.40;;
27644;SDS011;15054;57.152;-2.118;2022-08-11T07:55:36;0.60;;;0.47;;
27644;SDS011;15054;57.152;-2.118;2022-08-11T07:58:18;0.40;;;0.30;;
27644;SDS011;15054;57.152;-2.118;2022-08-11T08:01:22;0.80;;;0.60;;
27644;SDS011;15054;57.152;-2.118;2022-08-11T08:04:10;0.60;;;0.47;;
27644;SDS011;15054;57.152;-2.118;2022-08-11T08:06:58;1.02;;;0.40;;
27644;SDS011;15054;57.152;-2.118;2022-08-11T08:09:47;0.40;;;0.40;;
27644;SDS011;15054;57.152;-2.118;2022-08-11T08:12:34;0.68;;;0.40;;
27644;SDS011;15054;57.152;-2.118;2022-08-11T08:15:20;0.70;;;0.50;;
27644;SDS011;15054;57.152;-2.118;2022-08-11T08:18:07;0.38;;;0.38;;
27644;SDS011;15054;57.152;-2.118;2022-08-11T08:20:53;0.40;;;0.40;;
27644;SDS011;15054;57.152;-2.118;2022-08-11T08:23:25;1.55;;;0.40;;
27644;SDS011;15054;57.152;-2.118;2022-08-11T08:26:00;0.43;;;0.43;;
27644;SDS011;15054;57.152;-2.118;2022-08-11T08:28:30;1.70;;;0.60;;
27644;SDS011;15054;57.152;-2.118;2022-08-11T08:30:59;0.45;;;0.45;;
27644;SDS011;15054;57.152;-2.118;2022-08-11T08:33:30;0.65;;;0.65;;
27644;SDS011;15054;57.152;-2.118;2022-08-11T08:36:01;1.05;;;0.77;;
27644;SDS011;15054;57.152;-2.118;2022-08-11T08:38:42;2.33;;;1.20;;
27644;SDS011;15054;57.152;-2.118;2022-08-11T08:41:16;0.93;;;0.65;;
27644;SDS011;15054;57.152;-2.118;2022-08-11T08:43:57;1.65;;;1.10;;
27644;SDS011;15054;57.152;-2.118;2022-08-11T08:46:49;1.98;;;0.68;;
27644;SDS011;15054;57.152;-2.118;2022-08-11T08:49:22;0.93;;;0.70;;
27644;SDS011;15054;57.152;-2.118;2022-08-11T08:51:53;1.77;;;1.08;;
27644;SDS011;15054;57.152;-2.118;2022-08-11T08:54:43;1.75;;;0.90;;
27644;SDS011;15054;57.152;-2.118;2022-08-11T08:57:13;1.50;;;1.08;;
27644;SDS011;15054;57.152;-2.118;2022-08-11T08:59:43;1.33;;;0.90;;
27644;SDS011;15054;57.152;-2.118;2022-08-11T09:02:17;1.38;;;0.95;;
27644;SDS011;15054;57.152;-2.118;2022-08-11T09:05:00;2.15;;;0.75;;
27644;SDS011;15054;57.152;-2.118;2022-08-11T09:07:29;0.93;;;0.80;;
27644;SDS011;15054;57.152;-2.118;2022-08-11T09:10:07;2.05;;;1.10;;
27644;SDS011;15054;57.152;-2.118;2022-08-11T09:12:37;1.75;;;0.75;;
27644;SDS011;15054;57.152;-2.118;2022-08-11T09:15:08;1.35;;;0.80;;
27644;SDS011;15054;57.152;-2.118;2022-08-11T09:17:40;1.40;;;0.82;;
27644;SDS011;15054;57.152;-2.118;2022-08-11T09:20:19;0.80;;;0.73;;
27644;SDS011;15054;57.152;-2.118;2022-08-11T09:22:54;2.03;;;0.68;;
27644;SDS011;15054;57.152;-2.118;2022-08-11T09:26:02;4.32;;;0.95;;
27644;SDS011;15054;57.152;-2.118;2022-08-11T09:28:56;3.60;;;0.80;;
27644;SDS011;15054;57.152;-2.118;2022-08-11T09:31:25;2.50;;;0.85;;
27644;SDS011;15054;57.152;-2.118;2022-08-11T09:34:05;0.77;;;0.75;;
27644;SDS011;15054;57.152;-2.118;2022-08-11T09:36:35;0.98;;;0.90;;
27644;SDS011;15054;57.152;-2.118;2022-08-11T09:39:23;1.75;;;0.50;;
27644;SDS011;15054;57.152;-2.118;2022-08-11T09:42:10;0.68;;;0.68;;
27644;SDS011;15054;57.152;-2.118;2022-08-11T09:44:48;0.50;;;0.50;;
27644;SDS011;15054;57.152;-2.118;2022-08-11T09:49:58;1.13;;;0.40;;
27644;SDS011;15054;57.152;-2.118;2022-08-11T09:52:28;0.90;;;0.80;;
27644;SDS011;15054;57.152;-2.118;2022-08-11T09:55:01;0.52;;;0.52;;
27644;SDS011;15054;57.152;-2.118;2022-08-11T09:57:40;0.50;;;0.50;;
27644;SDS011;15054;57.152;-2.118;2022-08-11T10:00:31;0.50;;;0.50;;
27644;SDS011;15054;57.152;-2.118;2022-08-11T10:03:05;2.05;;;0.70;;
27644;SDS011;15054;57.152;-2.118;2022-08-11T10:05:35;0.57;;;0.52;;
27644;SDS011;15054;57.152;-2.118;2022-08-11T10:08:25;0.80;;;0.70;;
27644;SDS011;15054;57.152;-2.118;2022-08-11T10:10:55;1.30;;;0.50;;
27644;SDS011;15054;57.152;-2.118;2022-08-11T10:13:25;0.70;;;0.70;;
27644;SDS011;15054;57.152;-2.118;2022-08-11T10:16:43;0.63;;;0.63;;
27644;SDS011;15054;57.152;-2.118;2022-08-11T10:19:11;4.43;;;0.82;;
27644;SDS011;15054;57.152;-2.118;2022-08-11T10:21:51;0.63;;;0.60;;
27644;SDS011;15054;57.152;-2.118;2022-08-11T10:24:40;2.22;;;0.70;;
27644;SDS011;15054;57.152;-2.118;2022-08-11T10:27:28;1.20;;;0.60;;
27644;SDS011;15054;57.152;-2.118;2022-08-11T10:30:16;1.85;;;1.13;;
27644;SDS011;15054;57.152;-2.118;2022-08-11T10:36:07;1.88;;;0.80;;
27644;SDS011;15054;57.152;-2.118;2022-08-11T10:38:42;0.57;;;0.52;;
27644;SDS011;15054;57.152;-2.118;2022-08-11T10:41:12;2.25;;;0.93;;
27644;SDS011;15054;57.152;-2.118;2022-08-11T10:43:58;4.55;;;0.95;;
27644;SDS011;15054;57.152;-2.118;2022-08-11T10:46:29;3.03;;;0.80;;
27644;SDS011;15054;57.152;-2.118;2022-08-11T10:49:16;3.28;;;0.90;;
27644;SDS011;15054;57.152;-2.118;2022-08-11T10:51:45;2.25;;;0.95;;
27644;SDS011;15054;57.152;-2.118;2022-08-11T10:54:32;2.45;;;1.00;;
27644;SDS011;15054;57.152;-2.118;2022-08-11T10:57:20;1.05;;;0.90;;
27644;SDS011;15054;57.152;-2.118;2022-08-11T11:00:08;4.03;;;1.00;;
27644;SDS011;15054;57.152;-2.118;2022-08-11T11:02:43;1.63;;;0.60;;
27644;SDS011;15054;57.152;-2.118;2022-08-11T11:05:32;1.42;;;0.80;;
27644;SDS011;15054;57.152;-2.118;2022-08-11T11:08:01;1.63;;;0.90;;
27644;SDS011;15054;57.152;-2.118;2022-08-11T11:10:57;1.27;;;0.60;;
27644;SDS011;15054;57.152;-2.118;2022-08-11T11:13:24;5.20;;;1.10;;
27644;SDS011;15054;57.152;-2.118;2022-08-11T11:19:07;3.03;;;0.80;;
27644;SDS011;15054;57.152;-2.118;2022-08-11T11:21:37;3.55;;;1.02;;
27644;SDS011;15054;57.152;-2.118;2022-08-11T11:24:12;1.15;;;0.70;;
27644;SDS011;15054;57.152;-2.118;2022-08-11T11:32:27;2.78;;;1.08;;
27644;SDS011;15054;57.152;-2.118;2022-08-11T11:37:44;4.75;;;1.05;;
27644;SDS011;15054;57.152;-2.118;2022-08-11T11:40:29;2.45;;;0.98;;
27644;SDS011;15054;57.152;-2.118;2022-08-11T11:42:58;3.40;;;1.23;;
27644;SDS011;15054;57.152;-2.118;2022-08-11T11:45:26;3.95;;;1.00;;
27644;SDS011;15054;57.152;-2.118;2022-08-11T11:47:54;2.38;;;1.00;;
27644;SDS011;15054;57.152;-2.118;2022-08-11T11:50:30;1.65;;;0.63;;
27644;SDS011;15054;57.152;-2.118;2022-08-11T11:53:03;2.92;;;1.00;;
27644;SDS011;15054;57.152;-2.118;2022-08-11T11:55:32;2.58;;;1.20;;
27644;SDS011;15054;57.152;-2.118;2022-08-11T11:58:01;1.80;;;1.00;;
27644;SDS011;15054;57.152;-2.118;2022-08-11T12:00:48;7.07;;;1.30;;
27644;SDS011;15054;57.152;-2.118;2022-08-11T12:03:36;6.45;;;1.23;;
27644;SDS011;15054;57.152;-2.118;2022-08-11T12:06:06;1.52;;;1.40;;
27644;SDS011;15054;57.152;-2.118;2022-08-11T12:08:34;1.40;;;1.25;;
27644;SDS011;15054;57.152;-2.118;2022-08-11T12:11:03;2.67;;;0.98;;
27644;SDS011;15054;57.152;-2.118;2022-08-11T12:13:54;5.35;;;1.48;;
27644;SDS011;15054;57.152;-2.118;2022-08-11T12:16:24;4.05;;;1.30;;
27644;SDS011;15054;57.152;-2.118;2022-08-11T12:19:08;1.90;;;1.10;;
27644;SDS011;15054;57.152;-2.118;2022-08-11T12:21:48;5.18;;;1.60;;
27644;SDS011;15054;57.152;-2.118;2022-08-11T12:24:36;3.13;;;1.30;;
27644;SDS011;15054;57.152;-2.118;2022-08-11T12:27:23;3.55;;;1.25;;
27644;SDS011;15054;57.152;-2.118;2022-08-11T12:29:53;7.35;;;2.00;;
27644;SDS011;15054;57.152;-2.118;2022-08-11T12:32:32;2.97;;;1.70;;
27644;SDS011;15054;57.152;-2.118;2022-08-11T12:35:02;4.05;;;1.92;;
27644;SDS011;15054;57.152;-2.118;2022-08-11T12:37:31;4.63;;;1.58;;
27644;SDS011;15054;57.152;-2.118;2022-08-11T12:40:13;4.20;;;1.60;;
27644;SDS011;15054;57.152;-2.118;2022-08-11T12:43:23;3.10;;;1.40;;
27644;SDS011;15054;57.152;-2.118;2022-08-11T12:46:24;3.03;;;1.42;;
27644;SDS011;15054;57.152;-2.118;2022-08-11T12:48:59;1.73;;;1.10;;
27644;SDS011;15054;57.152;-2.118;2022-08-11T12:52:01;1.08;;;1.00;;
27644;SDS011;15054;57.152;-2.118;2022-08-11T12:57:16;2.03;;;1.10;;
27644;SDS011;15054;57.152;-2.118;2022-08-11T13:00:11;4.20;;;1.30;;
27644;SDS011;15054;57.152;-2.118;2022-08-11T13:02:58;1.33;;;0.85;;
27644;SDS011;15054;57.152;-2.118;2022-08-11T13:05:45;1.48;;;0.80;;
27644;SDS011;15054;57.152;-2.118;2022-08-11T13:08:13;5.97;;;1.05;;
27644;SDS011;15054;57.152;-2.118;2022-08-11T13:10:43;1.83;;;0.90;;
27644;SDS011;15054;57.152;-2.118;2022-08-11T13:13:29;1.13;;;0.82;;
27644;SDS011;15054;57.152;-2.118;2022-08-11T13:16:17;1.23;;;0.98;;
27644;SDS011;15054;57.152;-2.118;2022-08-11T13:18:46;1.48;;;1.00;;
27644;SDS011;15054;57.152;-2.118;2022-08-11T13:21:15;3.45;;;1.08;;
27644;SDS011;15054;57.152;-2.118;2022-08-11T13:23:47;1.67;;;1.10;;
27644;SDS011;15054;57.152;-2.118;2022-08-11T13:26:31;1.45;;;1.23;;
27644;SDS011;15054;57.152;-2.118;2022-08-11T13:29:14;1.73;;;1.20;;
27644;SDS011;15054;57.152;-2.118;2022-08-11T13:31:54;1.42;;;1.30;;
27644;SDS011;15054;57.152;-2.118;2022-08-11T13:34:27;1.40;;;1.25;;
27644;SDS011;15054;57.152;-2.118;2022-08-11T13:36:57;2.05;;;1.27;;
27644;SDS011;15054;57.152;-2.118;2022-08-11T13:39:27;1.50;;;1.23;;
27644;SDS011;15054;57.152;-2.118;2022-08-11T13:41:58;2.42;;;1.10;;
27644;SDS011;15054;57.152;-2.118;2022-08-11T13:44:28;2.70;;;1.30;;
27644;SDS011;15054;57.152;-2.118;2022-08-11T13:47:00;1.63;;;1.42;;
27644;SDS011;15054;57.152;-2.118;2022-08-11T13:49:30;1.42;;;1.20;;
27644;SDS011;15054;57.152;-2.118;2022-08-11T13:52:01;1.65;;;1.55;;
27644;SDS011;15054;57.152;-2.118;2022-08-11T13:54:30;3.55;;;1.50;;
27644;SDS011;15054;57.152;-2.118;2022-08-11T13:57:02;1.75;;;1.48;;
27644;SDS011;15054;57.152;-2.118;2022-08-11T13:59:38;1.73;;;1.50;;
27644;SDS011;15054;57.152;-2.118;2022-08-11T14:02:20;2.28;;;1.58;;
27644;SDS011;15054;57.152;-2.118;2022-08-11T14:04:57;1.48;;;1.05;;
27644;SDS011;15054;57.152;-2.118;2022-08-11T14:07:32;1.38;;;1.20;;
27644;SDS011;15054;57.152;-2.118;2022-08-11T14:10:03;4.43;;;1.38;;
27644;SDS011;15054;57.152;-2.118;2022-08-11T14:12:33;3.30;;;1.35;;
27644;SDS011;15054;57.152;-2.118;2022-08-11T14:15:26;1.30;;;1.20;;
27644;SDS011;15054;57.152;-2.118;2022-08-11T14:18:08;3.53;;;1.55;;
27644;SDS011;15054;57.152;-2.118;2022-08-11T14:20:43;3.60;;;1.35;;
27644;SDS011;15054;57.152;-2.118;2022-08-11T14:23:32;2.78;;;1.30;;
27644;SDS011;15054;57.152;-2.118;2022-08-11T14:26:04;3.40;;;1.17;;
27644;SDS011;15054;57.152;-2.118;2022-08-11T14:28:50;1.75;;;1.20;;
27644;SDS011;15054;57.152;-2.118;2022-08-11T14:31:23;1.88;;;1.15;;
27644;SDS011;15054;57.152;-2.118;2022-08-11T14:33:55;3.63;;;1.05;;
27644;SDS011;15054;57.152;-2.118;2022-08-11T14:36:37;1.40;;;0.90;;
27644;SDS011;15054;57.152;-2.118;2022-08-11T14:39:07;3.15;;;1.10;;
27644;SDS011;15054;57.152;-2.118;2022-08-11T14:41:42;2.60;;;1.20;;
27644;SDS011;15054;57.152;-2.118;2022-08-11T14:44:39;2.00;;;1.00;;
27644;SDS011;15054;57.152;-2.118;2022-08-11T14:47:32;1.10;;;1.00;;
27644;SDS011;15054;57.152;-2.118;2022-08-11T14:50:02;1.13;;;1.02;;
27644;SDS011;15054;57.152;-2.118;2022-08-11T14:53:00;2.15;;;1.00;;
27644;SDS011;15054;57.152;-2.118;2022-08-11T14:55:26;2.03;;;1.23;;
27644;SDS011;15054;57.152;-2.118;2022-08-11T14:58:17;3.00;;;0.90;;
27644;SDS011;15054;57.152;-2.118;2022-08-11T15:00:56;1.80;;;1.30;;
27644;SDS011;15054;57.152;-2.118;2022-08-11T15:03:26;3.03;;;1.08;;
27644;SDS011;15054;57.152;-2.118;2022-08-11T15:05:56;1.73;;;1.05;;
27644;SDS011;15054;57.152;-2.118;2022-08-11T15:08:29;1.10;;;1.00;;
27644;SDS011;15054;57.152;-2.118;2022-08-11T15:11:18;1.65;;;0.98;;
27644;SDS011;15054;57.152;-2.118;2022-08-11T15:14:14;2.00;;;0.80;;
27644;SDS011;15054;57.152;-2.118;2022-08-11T15:17:06;1.70;;;1.05;;
27644;SDS011;15054;57.152;-2.118;2022-08-11T15:19:38;1.60;;;1.30;;
27644;SDS011;15054;57.152;-2.118;2022-08-11T15:22:27;1.25;;;1.05;;
27644;SDS011;15054;57.152;-2.118;2022-08-11T15:25:13;2.38;;;1.08;;
27644;SDS011;15054;57.152;-2.118;2022-08-11T15:27:41;3.00;;;1.20;;
27644;SDS011;15054;57.152;-2.118;2022-08-11T15:30:30;2.75;;;1.15;;
27644;SDS011;15054;57.152;-2.118;2022-08-11T15:33:16;1.00;;;0.90;;
27644;SDS011;15054;57.152;-2.118;2022-08-11T15:36:04;1.05;;;1.00;;
27644;SDS011;15054;57.152;-2.118;2022-08-11T15:38:54;2.53;;;1.00;;
27644;SDS011;15054;57.152;-2.118;2022-08-11T15:44:50;2.10;;;1.02;;
27644;SDS011;15054;57.152;-2.118;2022-08-11T15:48:33;2.28;;;1.02;;
27644;SDS011;15054;57.152;-2.118;2022-08-11T15:50:39;1.05;;;1.00;;
27644;SDS011;15054;57.152;-2.118;2022-08-11T15:53:26;1.60;;;0.90;;
27644;SDS011;15054;57.152;-2.118;2022-08-11T15:56:00;2.15;;;1.17;;
27644;SDS011;15054;57.152;-2.118;2022-08-11T15:58:30;2.03;;;1.05;;
27644;SDS011;15054;57.152;-2.118;2022-08-11T16:01:38;3.38;;;1.35;;
27644;SDS011;15054;57.152;-2.118;2022-08-11T16:04:35;2.30;;;1.27;;
27644;SDS011;15054;57.152;-2.118;2022-08-11T16:09:39;1.98;;;1.42;;
27644;SDS011;15054;57.152;-2.118;2022-08-11T16:12:19;2.00;;;1.63;;
27644;SDS011;15054;57.152;-2.118;2022-08-11T16:14:57;3.15;;;1.67;;
27644;SDS011;15054;57.152;-2.118;2022-08-11T16:17:47;2.83;;;1.48;;
27644;SDS011;15054;57.152;-2.118;2022-08-11T16:20:19;2.33;;;1.60;;
27644;SDS011;15054;57.152;-2.118;2022-08-11T16:22:49;5.63;;;1.83;;
27644;SDS011;15054;57.152;-2.118;2022-08-11T16:25:28;3.45;;;1.80;;
27644;SDS011;15054;57.152;-2.118;2022-08-11T16:28:18;3.50;;;1.67;;
27644;SDS011;15054;57.152;-2.118;2022-08-11T16:30:47;2.28;;;1.33;;
27644;SDS011;15054;57.152;-2.118;2022-08-11T16:33:15;7.78;;;1.95;;
27644;SDS011;15054;57.152;-2.118;2022-08-11T16:36:04;2.60;;;1.60;;
27644;SDS011;15054;57.152;-2.118;2022-08-11T16:38:50;1.35;;;1.20;;
27644;SDS011;15054;57.152;-2.118;2022-08-11T16:41:20;3.95;;;1.83;;
27644;SDS011;15054;57.152;-2.118;2022-08-11T16:44:08;3.47;;;1.63;;
27644;SDS011;15054;57.152;-2.118;2022-08-11T16:47:03;2.70;;;1.50;;
27644;SDS011;15054;57.152;-2.118;2022-08-11T16:49:34;5.82;;;1.75;;
27644;SDS011;15054;57.152;-2.118;2022-08-11T16:52:07;3.58;;;1.48;;
27644;SDS011;15054;57.152;-2.118;2022-08-11T16:54:38;2.40;;;1.70;;
27644;SDS011;15054;57.152;-2.118;2022-08-11T16:57:17;2.50;;;1.27;;
27644;SDS011;15054;57.152;-2.118;2022-08-11T17:00:07;3.63;;;1.92;;
27644;SDS011;15054;57.152;-2.118;2022-08-11T17:02:45;1.73;;;1.30;;
27644;SDS011;15054;57.152;-2.118;2022-08-11T17:05:35;2.90;;;1.13;;
27644;SDS011;15054;57.152;-2.118;2022-08-11T17:08:34;1.65;;;1.17;;
27644;SDS011;15054;57.152;-2.118;2022-08-11T17:11:26;1.55;;;1.45;;
27644;SDS011;15054;57.152;-2.118;2022-08-11T17:14:16;3.13;;;1.13;;
27644;SDS011;15054;57.152;-2.118;2022-08-11T17:17:06;4.72;;;1.38;;
27644;SDS011;15054;57.152;-2.118;2022-08-11T17:19:46;2.58;;;1.08;;
27644;SDS011;15054;57.152;-2.118;2022-08-11T17:22:35;1.10;;;0.88;;
27644;SDS011;15054;57.152;-2.118;2022-08-11T17:25:26;1.20;;;1.02;;
27644;SDS011;15054;57.152;-2.118;2022-08-11T17:28:17;2.85;;;1.27;;
27644;SDS011;15054;57.152;-2.118;2022-08-11T17:30:49;1.58;;;1.10;;
27644;SDS011;15054;57.152;-2.118;2022-08-11T17:33:49;1.85;;;0.93;;
27644;SDS011;15054;57.152;-2.118;2022-08-11T17:36:35;1.40;;;1.13;;
27644;SDS011;15054;57.152;-2.118;2022-08-11T17:39:10;1.33;;;1.10;;
27644;SDS011;15054;57.152;-2.118;2022-08-11T17:41:38;1.20;;;1.00;;
27644;SDS011;15054;57.152;-2.118;2022-08-11T17:44:44;0.90;;;0.88;;
27644;SDS011;15054;57.152;-2.118;2022-08-11T17:47:30;2.53;;;1.15;;
27644;SDS011;15054;57.152;-2.118;2022-08-11T17:50:17;3.60;;;1.70;;
27644;SDS011;15054;57.152;-2.118;2022-08-11T17:52:45;2.58;;;1.08;;
27644;SDS011;15054;57.152;-2.118;2022-08-11T17:55:51;3.80;;;1.10;;
27644;SDS011;15054;57.152;-2.118;2022-08-11T17:58:55;2.20;;;1.05;;
27644;SDS011;15054;57.152;-2.118;2022-08-11T18:01:43;3.42;;;1.08;;
27644;SDS011;15054;57.152;-2.118;2022-08-11T18:04:19;1.33;;;1.25;;
27644;SDS011;15054;57.152;-2.118;2022-08-11T18:06:47;1.77;;;1.17;;
27644;SDS011;15054;57.152;-2.118;2022-08-11T18:09:37;2.08;;;1.35;;
27644;SDS011;15054;57.152;-2.118;2022-08-11T18:12:24;2.53;;;1.45;;
27644;SDS011;15054;57.152;-2.118;2022-08-11T18:15:09;3.05;;;1.50;;
27644;SDS011;15054;57.152;-2.118;2022-08-11T18:18:14;3.70;;;1.42;;
27644;SDS011;15054;57.152;-2.118;2022-08-11T18:21:00;1.77;;;1.05;;
27644;SDS011;15054;57.152;-2.118;2022-08-11T18:23:47;4.18;;;1.40;;
27644;SDS011;15054;57.152;-2.118;2022-08-11T18:26:35;1.80;;;1.20;;
27644;SDS011;15054;57.152;-2.118;2022-08-11T18:29:22;2.30;;;1.00;;
27644;SDS011;15054;57.152;-2.118;2022-08-11T18:32:15;1.15;;;1.13;;
27644;SDS011;15054;57.152;-2.118;2022-08-11T18:35:16;3.78;;;1.27;;
27644;SDS011;15054;57.152;-2.118;2022-08-11T18:38:22;1.38;;;1.10;;
27644;SDS011;15054;57.152;-2.118;2022-08-11T18:41:13;2.88;;;1.25;;
27644;SDS011;15054;57.152;-2.118;2022-08-11T18:44:19;1.35;;;1.05;;
27644;SDS011;15054;57.152;-2.118;2022-08-11T18:47:12;1.95;;;1.20;;
27644;SDS011;15054;57.152;-2.118;2022-08-11T18:50:02;3.75;;;1.98;;
27644;SDS011;15054;57.152;-2.118;2022-08-11T18:53:05;2.60;;;1.17;;
27644;SDS011;15054;57.152;-2.118;2022-08-11T18:56:12;2.08;;;1.08;;
27644;SDS011;15054;57.152;-2.118;2022-08-11T18:59:18;1.10;;;1.00;;
27644;SDS011;15054;57.152;-2.118;2022-08-11T19:02:09;3.88;;;1.17;;
27644;SDS011;15054;57.152;-2.118;2022-08-11T19:04:59;1.38;;;1.20;;
27644;SDS011;15054;57.152;-2.118;2022-08-11T19:08:06;2.45;;;1.00;;
27644;SDS011;15054;57.152;-2.118;2022-08-11T19:10:55;1.40;;;0.98;;
27644;SDS011;15054;57.152;-2.118;2022-08-11T19:13:45;1.60;;;1.30;;
27644;SDS011;15054;57.152;-2.118;2022-08-11T19:16:32;2.15;;;1.15;;
27644;SDS011;15054;57.152;-2.118;2022-08-11T19:19:21;1.92;;;1.30;;
27644;SDS011;15054;57.152;-2.118;2022-08-11T19:22:12;3.13;;;1.00;;
27644;SDS011;15054;57.152;-2.118;2022-08-11T19:25:01;1.25;;;0.75;;
27644;SDS011;15054;57.152;-2.118;2022-08-11T19:27:52;4.32;;;1.25;;
27644;SDS011;15054;57.152;-2.118;2022-08-11T19:30:38;1.17;;;0.93;;
27644;SDS011;15054;57.152;-2.118;2022-08-11T19:33:25;1.50;;;1.00;;